Time;durP1;ratioP1;P1;durP2;ratioP2;P2;SDS_P1;SDS_P2;PMS_P1;PMS_P2;Temp;Humidity;BMP_temperature;BMP_pressure;BME280_temperature;BME280_humidity;BME280_pressure;Samples;Min_cycle;Max_cycle;Signal;HPM_P1;HPM_P2
2023/04/09 00:02:17;;;;;;;1.05;0.50;;;;;;;0.87;55.16;103102.56;5035590;28;20061;-77
2023/04/09 00:04:45;;;;;;;1.10;0.50;;;;;;;0.86;55.23;103103.38;5043596;28;20045;-77
2023/04/09 00:07:12;;;;;;;1.58;0.55;;;;;;;0.84;54.92;103103.28;5040142;28;20060;-76
2023/04/09 00:09:39;;;;;;;1.00;0.60;;;;;;;0.84;55.84;103104.97;5040207;28;20053;-76
2023/04/09 00:12:06;;;;;;;2.88;0.80;;;;;;;0.81;55.98;103100.53;5038973;28;20059;-77
2023/04/09 00:14:33;;;;;;;6.68;0.80;;;;;;;0.79;55.47;103098.66;5041861;28;20056;-76
2023/04/09 00:17:00;;;;;;;4.63;0.50;;;;;;;0.72;55.88;103089.69;5037343;28;20144;-76
2023/04/09 00:19:26;;;;;;;4.60;0.70;;;;;;;0.77;56.01;103089.94;5039281;28;20115;-77
2023/04/09 00:21:55;;;;;;;10.85;0.70;;;;;;;0.71;55.55;103087.03;5037231;28;20045;-77
2023/04/09 00:24:22;;;;;;;4.13;1.33;;;;;;;0.74;55.89;103089.78;5038130;28;20045;-77
2023/04/09 00:26:49;;;;;;;3.83;0.80;;;;;;;0.72;56.22;103088.81;5041137;28;20496;-76
2023/04/09 00:29:16;;;;;;;3.58;1.25;;;;;;;0.70;55.81;103090.41;5039094;28;20052;-76
2023/04/09 00:31:43;;;;;;;4.65;0.77;;;;;;;0.70;55.84;103093.84;5040570;28;20053;-76
2023/04/09 00:34:10;;;;;;;3.75;0.50;;;;;;;0.63;56.24;103078.88;5038694;28;20052;-76
2023/04/09 00:36:37;;;;;;;1.98;0.85;;;;;;;0.67;55.78;103086.84;5042532;28;20049;-76
2023/04/09 00:39:05;;;;;;;1.58;0.60;;;;;;;0.65;56.21;103080.75;5034874;28;20409;-77
2023/04/09 00:41:32;;;;;;;2.75;0.82;;;;;;;0.64;56.18;103080.63;5042583;28;21280;-76
2023/04/09 00:43:59;;;;;;;4.15;1.00;;;;;;;0.63;56.57;103079.75;5033421;28;21489;-77
2023/04/09 00:46:26;;;;;;;2.85;0.93;;;;;;;0.61;56.32;103081.34;5030409;28;20067;-76
2023/04/09 00:48:53;;;;;;;4.82;0.90;;;;;;;0.61;56.57;103080.47;5039782;28;20060;-76
2023/04/09 00:51:20;;;;;;;5.80;0.82;;;;;;;0.59;56.68;103082.94;5036306;28;20641;-78
2023/04/09 00:53:48;;;;;;;4.65;1.05;;;;;;;0.59;56.08;103074.34;5036555;28;20052;-76
2023/04/09 00:56:18;;;;;;;3.33;0.57;;;;;;;0.58;57.01;103081.16;5039134;28;20904;-76
2023/04/09 00:58:45;;;;;;;6.75;1.17;;;;;;;0.56;56.24;103080.19;5040944;28;20513;-76
2023/04/09 01:01:12;;;;;;;1.73;0.70;;;;;;;0.56;56.49;103075.03;5033751;28;20048;-77
2023/04/09 01:03:39;;;;;;;6.25;1.00;;;;;;;0.57;57.02;103078.50;5040512;28;20044;-76
2023/04/09 01:06:12;;;;;;;5.13;0.70;;;;;;;0.50;56.95;103063.50;5039432;28;20049;-76
2023/04/09 01:08:49;;;;;;;2.53;0.90;;;;;;;0.49;56.80;103062.63;5035196;28;20045;-76
2023/04/09 01:11:28;;;;;;;2.88;0.88;;;;;;;0.45;56.66;103056.38;5037709;28;20052;-76
2023/04/09 01:14:05;;;;;;;5.50;1.40;;;;;;;0.53;56.63;103071.41;5034053;28;20056;-76
2023/04/09 01:16:34;;;;;;;3.80;0.68;;;;;;;0.52;56.74;103070.53;5042155;28;20055;-76
2023/04/09 01:19:06;;;;;;;5.55;0.75;;;;;;;0.51;57.30;103072.97;5023430;28;20041;-76
2023/04/09 01:21:34;;;;;;;2.75;0.95;;;;;;;0.50;56.93;103073.78;5033173;28;20045;-76
2023/04/09 01:24:19;;;;;;;2.47;0.82;;;;;;;0.49;57.00;103070.34;5033371;28;20045;-76
2023/04/09 01:26:57;;;;;;;3.13;0.80;;;;;;;0.48;57.15;103072.81;5036488;28;20508;-76
2023/04/09 01:29:27;;;;;;;5.43;0.82;;;;;;;0.41;56.81;103058.72;5035896;28;20053;-76
2023/04/09 01:31:55;;;;;;;1.20;0.55;;;;;;;0.46;57.28;103065.03;5039723;28;20052;-76
2023/04/09 01:34:22;;;;;;;1.90;0.60;;;;;;;0.46;57.41;103067.59;5035785;28;20054;-76
2023/04/09 01:36:54;;;;;;;5.30;0.90;;;;;;;0.44;57.45;103070.06;5041327;28;20060;-76
2023/04/09 01:39:21;;;;;;;3.53;0.70;;;;;;;0.44;57.77;103067.47;5031474;28;20056;-76
2023/04/09 01:41:50;;;;;;;2.20;0.70;;;;;;;0.44;57.10;103066.59;5043907;28;20049;-76
2023/04/09 01:44:18;;;;;;;4.57;0.82;;;;;;;0.43;57.45;103067.41;5030303;28;20045;-77
2023/04/09 01:46:48;;;;;;;6.25;0.57;;;;;;;0.38;57.63;103055.97;5042208;28;20452;-76
2023/04/09 01:49:17;;;;;;;1.50;0.50;;;;;;;0.42;57.91;103063.03;5033529;28;20068;-76
2023/04/09 01:51:44;;;;;;;4.07;0.57;;;;;;;0.42;57.93;103070.75;5041525;28;20049;-76
2023/04/09 01:54:11;;;;;;;4.15;0.70;;;;;;;0.40;57.68;103064.66;5032614;28;20041;-76
2023/04/09 01:56:42;;;;;;;3.63;0.90;;;;;;;0.34;57.93;103057.47;5051831;28;20057;-76
2023/04/09 01:59:09;;;;;;;1.00;0.55;;;;;;;0.33;57.82;103059.94;5033161;28;20056;-76
2023/04/09 02:01:41;;;;;;;4.00;1.65;;;;;;;0.38;57.78;103071.38;5040623;28;20498;-76
2023/04/09 02:04:15;;;;;;;4.13;0.88;;;;;;;0.36;57.83;103067.81;5037916;28;20736;-76
2023/04/09 02:06:48;;;;;;;1.30;0.43;;;;;;;0.36;57.68;103072.97;5038102;28;20056;-77
2023/04/09 02:09:18;;;;;;;2.03;0.70;;;;;;;0.33;57.94;103062.50;5037853;28;20413;-76
2023/04/09 02:11:47;;;;;;;1.42;0.82;;;;;;;0.32;57.92;103066.75;5036006;28;20111;-76
2023/04/09 02:14:16;;;;;;;1.17;0.60;;;;;;;0.31;57.83;103069.22;5040482;28;20099;-76
2023/04/09 02:16:43;;;;;;;6.68;0.70;;;;;;;0.30;57.52;103067.47;5042486;28;20045;-76
2023/04/09 02:19:11;;;;;;;1.80;0.80;;;;;;;0.29;58.37;103070.84;5040884;28;20051;-76
2023/04/09 02:21:38;;;;;;;2.65;1.08;;;;;;;0.28;58.59;103064.78;5039008;28;20053;-76
2023/04/09 02:24:05;;;;;;;5.80;0.68;;;;;;;0.28;58.17;103077.63;5044362;28;20690;-76
2023/04/09 02:26:32;;;;;;;7.15;0.90;;;;;;;0.26;58.18;103078.34;5035698;28;20049;-75
2023/04/09 02:28:59;;;;;;;3.08;0.90;;;;;;;0.20;58.51;103059.19;5039471;28;20074;-77
2023/04/09 02:31:26;;;;;;;5.80;0.75;;;;;;;0.26;57.66;103075.75;5031990;28;20063;-77
2023/04/09 02:33:53;;;;;;;2.15;0.82;;;;;;;0.24;57.88;103078.25;5039666;28;20588;-72
2023/04/09 02:36:21;;;;;;;3.53;0.60;;;;;;;0.24;58.22;103079.94;5035882;28;20489;-72
2023/04/09 02:38:48;;;;;;;7.40;0.80;;;;;;;0.22;58.42;103078.16;5041343;28;20048;-72
2023/04/09 02:41:15;;;;;;;5.38;0.80;;;;;;;0.12;58.80;103065.56;5029479;28;20042;-72
2023/04/09 02:43:42;;;;;;;2.15;0.63;;;;;;;0.20;58.64;103084.03;5034758;28;20572;-72
2023/04/09 02:46:09;;;;;;;1.48;0.65;;;;;;;0.18;58.15;103078.78;5032199;28;20053;-72
2023/04/09 02:48:36;;;;;;;4.32;0.60;;;;;;;0.17;57.95;103077.00;5030597;28;20055;-71
2023/04/09 02:51:05;;;;;;;4.35;0.90;;;;;;;0.14;58.88;103076.81;5029982;28;20485;-72
2023/04/09 02:53:33;;;;;;;3.78;0.70;;;;;;;0.13;58.46;103080.16;5037512;28;20060;-73
2023/04/09 02:56:00;;;;;;;5.47;0.80;;;;;;;0.11;58.69;103081.75;5039536;28;20042;-72
2023/04/09 02:58:27;;;;;;;9.93;1.17;;;;;;;0.11;58.91;103081.75;5031487;28;20052;-72
2023/04/09 03:00:54;;;;;;;3.10;0.90;;;;;;;0.11;58.99;103086.88;5041421;28;20052;-72
2023/04/09 03:03:21;;;;;;;9.13;1.80;;;;;;;0.09;58.55;103082.47;5035286;28;20044;-72
2023/04/09 03:05:48;;;;;;;1.80;0.88;;;;;;;0.05;58.87;103073.66;5035975;28;20049;-72
2023/04/09 03:08:15;;;;;;;3.63;1.08;;;;;;;0.08;58.69;103076.41;5035905;28;20059;-72
2023/04/09 03:10:43;;;;;;;3.80;0.75;;;;;;;0.07;59.20;103079.78;5037474;28;20121;-72
2023/04/09 03:13:10;;;;;;;6.85;0.80;;;;;;;0.06;58.58;103088.31;5043192;28;20053;-72
2023/04/09 03:15:37;;;;;;;2.33;0.63;;;;;;;0.07;58.75;103086.63;5035952;28;20056;-71
2023/04/09 03:18:04;;;;;;;2.85;0.77;;;;;;;0.05;59.07;103086.50;5043562;28;20053;-72
2023/04/09 03:20:31;;;;;;;3.22;0.90;;;;;;;0.04;58.36;103079.59;5036800;28;20049;-72
2023/04/09 03:22:58;;;;;;;3.67;0.85;;;;;;;-0.01;59.35;103071.59;5038362;28;20088;-73
2023/04/09 03:25:24;;;;;;;1.25;0.40;;;;;;;0.01;58.63;103074.28;5036400;28;20064;-71
2023/04/09 03:27:53;;;;;;;2.78;0.82;;;;;;;0.02;59.31;103083.75;5043386;28;20059;-72
2023/04/09 03:30:20;;;;;;;4.18;0.80;;;;;;;0.02;58.92;103070.91;5039844;28;20056;-71
2023/04/09 03:32:47;;;;;;;4.40;1.17;;;;;;;0.02;58.95;103078.63;5034924;28;20060;-72
2023/04/09 03:35:13;;;;;;;2.38;0.70;;;;;;;0.02;59.16;103083.75;5036965;28;20053;-72
2023/04/09 03:37:40;;;;;;;2.53;0.82;;;;;;;0.00;59.30;103087.94;5040358;28;20053;-72
2023/04/09 03:40:09;;;;;;;2.45;0.70;;;;;;;-0.01;59.45;103081.00;5035969;28;20525;-72
2023/04/09 03:42:36;;;;;;;2.50;0.50;;;;;;;-0.03;58.67;103088.63;5034212;28;20088;-72
2023/04/09 03:45:05;;;;;;;4.72;0.68;;;;;;;-0.05;59.71;103082.50;5032525;28;20056;-72
2023/04/09 03:47:33;;;;;;;2.33;0.60;;;;;;;-0.05;58.93;103087.63;5040747;28;20049;-72
2023/04/09 03:50:00;;;;;;;5.38;1.15;;;;;;;-0.07;59.31;103080.63;5035293;28;20045;-72
2023/04/09 03:52:27;;;;;;;3.92;0.52;;;;;;;-0.08;59.31;103084.00;5036347;28;20053;-73
2023/04/09 03:54:54;;;;;;;1.40;0.80;;;;;;;-0.10;59.16;103083.88;5041630;28;20602;-73
2023/04/09 03:57:20;;;;;;;3.30;0.50;;;;;;;-0.12;59.06;103082.91;5034221;28;20049;-72
2023/04/09 03:59:48;;;;;;;1.60;0.50;;;;;;;-0.12;59.12;103092.28;5038027;28;20051;-72
2023/04/09 04:02:16;;;;;;;1.77;0.45;;;;;;;-0.12;59.58;103087.16;5032292;28;20115;-72
2023/04/09 04:04:43;;;;;;;2.75;0.50;;;;;;;-0.16;59.73;103085.19;5037555;28;20053;-73
2023/04/09 04:07:10;;;;;;;8.48;0.90;;;;;;;-0.15;59.25;103084.41;5038200;28;20045;-71
2023/04/09 04:09:37;;;;;;;1.50;0.50;;;;;;;-0.15;59.07;103081.81;5041995;28;20047;-72
2023/04/09 04:12:04;;;;;;;6.53;0.88;;;;;;;-0.15;59.38;103081.81;5035889;28;20424;-72
2023/04/09 04:14:31;;;;;;;1.73;0.50;;;;;;;-0.16;59.53;103086.09;5039726;28;20056;-72
2023/04/09 04:16:58;;;;;;;1.38;0.77;;;;;;;-0.16;59.57;103091.22;5038778;28;20045;-72
2023/04/09 04:19:26;;;;;;;1.17;0.60;;;;;;;-0.15;59.82;103089.53;5037667;28;20513;-72
2023/04/09 04:21:53;;;;;;;3.88;0.50;;;;;;;-0.16;59.57;103085.19;5042429;28;20054;-72
2023/04/09 04:24:20;;;;;;;2.67;0.55;;;;;;;-0.16;59.36;103086.09;5030835;28;20053;-72
2023/04/09 04:26:46;;;;;;;4.28;0.70;;;;;;;-0.18;59.41;103087.66;5028850;28;20041;-71
2023/04/09 04:29:13;;;;;;;1.60;0.60;;;;;;;-0.16;59.19;103085.19;5040411;28;20052;-73
2023/04/09 04:31:40;;;;;;;1.25;0.45;;;;;;;-0.16;59.60;103085.19;5036948;28;20037;-72
2023/04/09 04:34:07;;;;;;;2.78;0.43;;;;;;;-0.15;59.79;103092.97;5036437;28;20432;-72
2023/04/09 04:36:37;;;;;;;2.60;0.80;;;;;;;-0.15;59.97;103079.25;5032859;28;20049;-71
2023/04/09 04:39:04;;;;;;;1.70;0.50;;;;;;;-0.14;59.58;103087.06;5030727;28;20060;-74
2023/04/09 04:41:31;;;;;;;2.47;0.50;;;;;;;-0.14;60.06;103081.03;5033134;28;20516;-71
2023/04/09 04:43:57;;;;;;;3.22;0.60;;;;;;;-0.16;59.82;103073.25;5028337;28;20124;-71
2023/04/09 04:46:24;;;;;;;3.53;0.82;;;;;;;-0.10;59.37;103075.31;5033531;28;20051;-72
2023/04/09 04:48:51;;;;;;;1.13;0.50;;;;;;;-0.08;60.05;103086.56;5035453;28;20133;-72
2023/04/09 04:51:18;;;;;;;3.67;0.50;;;;;;;-0.08;60.03;103082.31;5032511;28;20041;-73
2023/04/09 04:53:46;;;;;;;4.13;0.88;;;;;;;-0.05;60.14;103086.75;5032042;28;20045;-71
2023/04/09 04:56:14;;;;;;;3.03;1.33;;;;;;;-0.02;59.64;103084.38;5034264;28;20041;-73
2023/04/09 04:58:41;;;;;;;1.75;0.60;;;;;;;0.00;60.17;103087.94;5037415;28;20060;-72
2023/04/09 05:01:08;;;;;;;3.42;0.73;;;;;;;0.03;60.56;103087.22;5032332;28;20694;-73
2023/04/09 05:03:35;;;;;;;4.93;0.65;;;;;;;0.05;60.10;103083.94;5028752;28;20049;-72
2023/04/09 05:06:02;;;;;;;8.07;1.00;;;;;;;0.08;60.25;103080.69;5037465;28;20060;-72
2023/04/09 05:08:29;;;;;;;5.70;0.70;;;;;;;0.11;60.58;103081.75;5037371;28;20041;-72
2023/04/09 05:10:57;;;;;;;3.80;0.88;;;;;;;0.15;60.35;103082.84;5041668;28;20052;-72
2023/04/09 05:13:24;;;;;;;5.70;1.05;;;;;;;0.19;61.15;103082.22;5030451;28;20037;-72
2023/04/09 05:15:51;;;;;;;1.80;0.98;;;;;;;0.22;60.57;103084.97;5030809;28;20395;-71
2023/04/09 05:18:18;;;;;;;4.93;0.75;;;;;;;0.21;60.57;103078.06;5037407;28;20052;-72
2023/04/09 05:20:44;;;;;;;2.65;0.80;;;;;;;0.32;60.54;103089.91;5037752;28;20049;-72
2023/04/09 05:23:11;;;;;;;5.30;1.00;;;;;;;0.37;60.72;103093.63;5032938;28;20042;-73
2023/04/09 05:25:38;;;;;;;2.08;0.65;;;;;;;0.41;61.00;103089.56;5041254;28;20060;-72
2023/04/09 05:28:07;;;;;;;4.32;1.67;;;;;;;0.46;61.18;103093.31;5031496;28;20047;-72
2023/04/09 05:30:34;;;;;;;8.85;0.90;;;;;;;0.50;61.33;103091.78;5039186;28;20048;-72
2023/04/09 05:33:00;;;;;;;3.67;0.90;;;;;;;0.59;60.44;103092.34;5032712;28;20049;-72
2023/04/09 05:35:27;;;;;;;1.58;0.75;;;;;;;0.63;61.09;103090.06;5033785;28;20494;-72
2023/04/09 05:37:54;;;;;;;2.88;0.68;;;;;;;0.70;61.59;103085.25;5032528;28;20494;-71
2023/04/09 05:40:21;;;;;;;2.50;1.33;;;;;;;0.75;61.60;103092.44;5037893;28;20064;-72
2023/04/09 05:42:48;;;;;;;2.78;1.05;;;;;;;0.82;61.83;103092.00;5033778;28;20037;-72
2023/04/09 05:45:16;;;;;;;2.70;0.88;;;;;;;0.88;61.96;103092.38;5026455;28;20055;-72
2023/04/09 05:47:43;;;;;;;4.63;0.77;;;;;;;0.95;62.47;103098.75;5040210;28;20045;-72
2023/04/09 05:50:10;;;;;;;4.03;0.77;;;;;;;1.00;62.14;103088.75;5031013;28;20053;-72
2023/04/09 05:52:37;;;;;;;3.67;0.90;;;;;;;1.08;61.96;103077.19;5036178;28;20123;-72
2023/04/09 05:55:05;;;;;;;3.03;0.82;;;;;;;1.17;62.36;103090.59;5033935;28;20041;-72
2023/04/09 05:57:32;;;;;;;6.13;0.80;;;;;;;1.25;62.61;103088.44;5040381;28;20041;-72
2023/04/09 05:59:59;;;;;;;1.20;0.60;;;;;;;1.30;62.58;103079.28;5028312;28;20042;-71
2023/04/09 06:02:28;;;;;;;3.13;1.23;;;;;;;1.39;62.07;103084.97;5039373;28;20037;-72
2023/04/09 06:04:55;;;;;;;1.80;0.50;;;;;;;1.51;62.72;103082.22;5032452;28;20045;-72
2023/04/09 06:07:22;;;;;;;2.42;0.60;;;;;;;1.60;61.89;103074.97;5034549;28;20045;-72
2023/04/09 06:09:48;;;;;;;0.32;0.20;;;;;;;1.73;61.31;103077.41;5031059;28;20272;-72
2023/04/09 06:12:16;;;;;;;2.10;0.50;;;;;;;1.81;60.87;103070.09;5037866;28;20051;-72
2023/04/09 06:14:43;;;;;;;1.85;0.32;;;;;;;1.96;61.09;103083.84;5031886;28;20057;-72
2023/04/09 06:17:09;;;;;;;1.17;0.40;;;;;;;2.07;60.87;103080.94;5036416;28;20056;-73
2023/04/09 06:19:38;;;;;;;3.10;0.40;;;;;;;2.21;60.92;103079.97;5032160;28;20524;-72
2023/04/09 06:22:05;;;;;;;0.55;0.30;;;;;;;2.34;60.88;103076.34;5035780;28;20616;-72
2023/04/09 06:24:32;;;;;;;0.88;0.30;;;;;;;2.46;60.27;103080.44;5033038;28;20111;-72
2023/04/09 06:27:00;;;;;;;0.90;0.40;;;;;;;2.60;60.24;103080.28;5036750;28;20053;-73
2023/04/09 06:29:27;;;;;;;1.10;0.50;;;;;;;2.74;59.72;103078.41;5031525;28;20055;-73
2023/04/09 06:31:54;;;;;;;3.05;0.50;;;;;;;2.88;59.55;103086.03;5031052;28;20048;-74
2023/04/09 06:34:21;;;;;;;1.65;0.60;;;;;;;3.00;59.67;103080.59;5034300;28;20057;-73
2023/04/09 06:36:49;;;;;;;1.98;0.70;;;;;;;3.13;59.61;103080.38;5040551;28;20605;-73
2023/04/09 06:39:16;;;;;;;3.33;0.50;;;;;;;3.26;59.27;103092.19;5030660;28;20407;-74
2023/04/09 06:41:42;;;;;;;1.30;0.60;;;;;;;3.37;59.25;103098.75;5035030;28;20135;-73
2023/04/09 06:44:09;;;;;;;1.48;0.70;;;;;;;3.51;59.07;103093.38;5032811;28;20053;-73
2023/04/09 06:46:36;;;;;;;1.15;0.65;;;;;;;3.62;59.01;103092.19;5035594;28;20080;-73
2023/04/09 06:49:03;;;;;;;1.50;0.77;;;;;;;3.73;58.92;103091.00;5032252;28;20044;-73
2023/04/09 06:51:30;;;;;;;1.70;0.57;;;;;;;3.86;58.83;103097.59;5032137;28;20045;-73
2023/04/09 06:53:58;;;;;;;1.17;0.60;;;;;;;4.00;58.55;103090.50;5018241;28;20050;-74
2023/04/09 06:56:25;;;;;;;2.00;0.90;;;;;;;4.14;58.38;103084.25;5021607;28;20486;-74
2023/04/09 06:58:52;;;;;;;2.97;0.80;;;;;;;4.27;57.82;103086.56;5022379;28;20045;-73
2023/04/09 07:01:20;;;;;;;2.15;1.27;;;;;;;4.43;57.72;103076.88;5019897;28;20041;-73
2023/04/09 07:03:46;;;;;;;2.90;1.10;;;;;;;4.61;57.61;103080.28;5031004;28;20049;-74
2023/04/09 07:06:13;;;;;;;5.53;1.15;;;;;;;4.81;57.69;103085.41;5024265;28;20044;-74
2023/04/09 07:08:40;;;;;;;3.13;0.82;;;;;;;5.00;57.62;103087.06;5016131;28;20053;-74
2023/04/09 07:11:10;;;;;;;4.88;1.15;;;;;;;5.09;57.44;103067.59;5022898;28;20042;-74
2023/04/09 07:13:36;;;;;;;1.92;1.00;;;;;;;5.33;56.83;103087.56;5029135;28;20053;-73
2023/04/09 07:16:04;;;;;;;2.17;0.82;;;;;;;5.48;56.88;103083.00;5023656;28;20490;-73
2023/04/09 07:18:31;;;;;;;3.15;0.90;;;;;;;5.62;56.97;103079.22;5023058;28;20156;-74
2023/04/09 07:20:57;;;;;;;2.08;0.80;;;;;;;5.73;56.73;103081.38;5026127;28;20048;-74
2023/04/09 07:23:24;;;;;;;4.60;0.95;;;;;;;5.82;56.43;103082.59;5011775;28;20049;-75
2023/04/09 07:25:51;;;;;;;1.77;0.80;;;;;;;5.88;56.32;103079.34;5021361;28;20081;-73
2023/04/09 07:28:19;;;;;;;1.65;0.90;;;;;;;5.91;55.67;103069.06;5026524;28;20056;-74
2023/04/09 07:30:46;;;;;;;4.85;1.73;;;;;;;6.02;55.85;103083.38;5027429;28;20751;-73
2023/04/09 07:33:13;;;;;;;3.33;0.80;;;;;;;6.08;55.97;103078.41;5024256;28;20037;-74
2023/04/09 07:35:40;;;;;;;3.15;1.15;;;;;;;6.18;55.67;103087.44;5025473;28;21082;-73
2023/04/09 07:38:07;;;;;;;3.33;1.17;;;;;;;6.24;55.47;103082.47;5029673;28;20041;-73
2023/04/09 07:40:35;;;;;;;6.22;1.10;;;;;;;6.30;55.04;103079.19;5023301;28;20040;-73
2023/04/09 07:43:02;;;;;;;1.92;1.15;;;;;;;6.41;55.08;103077.00;5038804;28;20095;-74
2023/04/09 07:45:30;;;;;;;5.40;1.10;;;;;;;6.50;54.78;103077.31;5026627;28;20052;-73
2023/04/09 07:47:57;;;;;;;3.55;0.68;;;;;;;6.60;54.54;103083.69;5034788;28;20037;-73
2023/04/09 07:50:24;;;;;;;2.88;0.80;;;;;;;6.67;54.43;103080.50;5023489;28;20045;-74
2023/04/09 07:52:51;;;;;;;2.78;0.80;;;;;;;6.77;53.74;103077.38;5040026;28;20081;-74
2023/04/09 07:55:19;;;;;;;6.63;1.08;;;;;;;6.89;53.45;103077.81;5027431;28;20541;-75
2023/04/09 07:57:47;;;;;;;4.38;0.70;;;;;;;7.05;53.59;103078.31;5028923;28;20042;-74
2023/04/09 08:00:14;;;;;;;2.00;0.93;;;;;;;7.20;53.32;103087.50;5035536;28;20044;-73
2023/04/09 08:02:43;;;;;;;3.58;1.20;;;;;;;7.33;52.35;103078.38;5040848;28;20091;-74
2023/04/09 08:05:10;;;;;;;5.75;0.90;;;;;;;7.39;52.04;103070.75;5021546;28;20045;-75
2023/04/09 08:07:37;;;;;;;2.90;0.65;;;;;;;7.44;52.20;103050.97;5035904;28;20050;-73
2023/04/09 08:10:05;;;;;;;3.83;0.80;;;;;;;7.72;51.62;103084.78;5025346;28;20041;-74
2023/04/09 08:12:32;;;;;;;4.18;1.17;;;;;;;7.82;51.72;103081.59;5030005;28;20080;-73
2023/04/09 08:14:58;;;;;;;3.95;0.82;;;;;;;7.92;52.11;103082.78;5020223;28;20052;-73
2023/04/09 08:17:26;;;;;;;4.00;0.60;;;;;;;7.99;51.90;103076.88;5034523;28;20042;-71
2023/04/09 08:19:54;;;;;;;3.53;0.60;;;;;;;8.09;51.41;103081.53;5025586;28;20063;-73
2023/04/09 08:22:21;;;;;;;3.15;0.80;;;;;;;8.15;51.18;103076.50;5033182;28;20061;-73
2023/04/09 08:24:51;;;;;;;3.33;0.98;;;;;;;8.22;51.44;103078.41;5021562;28;20053;-73
2023/04/09 08:27:18;;;;;;;1.60;0.75;;;;;;;8.27;50.96;103070.75;5033361;28;20048;-73
2023/04/09 08:29:45;;;;;;;2.78;0.70;;;;;;;8.29;50.67;103067.34;5037274;28;20504;-72
2023/04/09 08:32:12;;;;;;;3.55;0.93;;;;;;;8.38;49.88;103065.84;5019677;28;20051;-71
2023/04/09 08:34:39;;;;;;;3.25;0.73;;;;;;;8.43;50.13;103067.78;5040554;28;20061;-72
2023/04/09 08:37:07;;;;;;;5.97;0.75;;;;;;;8.49;49.93;103067.06;5024800;28;20136;-72
2023/04/09 08:39:35;;;;;;;2.53;0.60;;;;;;;8.49;49.21;103057.50;5037748;28;20496;-71
2023/04/09 08:42:02;;;;;;;1.48;0.32;;;;;;;8.59;49.47;103062.97;5032704;28;20233;-72
2023/04/09 08:44:30;;;;;;;2.30;0.60;;;;;;;8.66;49.47;103070.09;5030962;28;20052;-72
2023/04/09 08:46:57;;;;;;;5.43;0.40;;;;;;;8.71;49.35;103068.50;5037884;28;20045;-72
2023/04/09 08:49:24;;;;;;;1.83;0.43;;;;;;;8.72;48.67;103065.94;5033913;28;20123;-74
2023/04/09 08:51:51;;;;;;;1.25;0.50;;;;;;;8.80;48.71;103070.47;5024642;28;20049;-71
2023/04/09 08:54:19;;;;;;;1.30;0.40;;;;;;;8.85;49.47;103067.13;5033508;28;20044;-72
2023/04/09 08:56:47;;;;;;;2.40;0.40;;;;;;;8.80;47.91;103047.91;5030661;28;20493;-72
2023/04/09 08:59:17;;;;;;;2.45;0.57;;;;;;;8.94;47.72;103062.16;5028627;28;20192;-71
2023/04/09 09:01:45;;;;;;;1.63;0.47;;;;;;;9.00;47.63;103062.28;5037168;28;20056;-72
2023/04/09 09:04:12;;;;;;;1.08;0.30;;;;;;;8.99;47.88;103049.22;5028194;28;20053;-73
2023/04/09 09:06:40;;;;;;;0.68;0.30;;;;;;;9.10;47.64;103063.38;5029085;28;20430;-73
2023/04/09 09:09:08;;;;;;;1.33;0.30;;;;;;;9.12;47.64;103056.50;5026320;28;20512;-74
2023/04/09 09:11:38;;;;;;;2.35;0.40;;;;;;;9.18;47.25;103048.81;5037658;28;20481;-74
2023/04/09 09:14:06;;;;;;;3.05;0.52;;;;;;;9.23;47.18;103055.03;5036913;28;20422;-74
2023/04/09 09:16:34;;;;;;;1.00;0.30;;;;;;;9.28;47.20;103049.94;5023077;28;20049;-74
2023/04/09 09:19:02;;;;;;;0.65;0.20;;;;;;;9.33;47.17;103052.63;5024360;28;20068;-73
2023/04/09 09:21:30;;;;;;;3.00;0.30;;;;;;;9.36;47.58;103051.00;5012558;28;20489;-74
2023/04/09 09:23:57;;;;;;;1.13;0.28;;;;;;;9.43;47.05;103054.63;5026424;28;20099;-74
2023/04/09 09:26:27;;;;;;;0.85;0.30;;;;;;;9.50;47.42;103048.66;5024234;28;20041;-74
2023/04/09 09:28:57;;;;;;;1.48;0.30;;;;;;;9.52;46.99;103046.13;5022636;28;20044;-74
2023/04/09 09:31:25;;;;;;;0.57;0.30;;;;;;;9.58;47.22;103047.13;5014889;28;20048;-74
2023/04/09 09:33:52;;;;;;;0.60;0.20;;;;;;;9.58;46.42;103047.13;5018445;28;20056;-75
2023/04/09 09:36:32;;;;;;;0.30;0.20;;;;;;;9.66;46.96;103042.06;5019259;28;20049;-74
2023/04/09 09:39:04;;;;;;;0.80;0.25;;;;;;;9.68;46.89;103049.09;5031325;28;20428;-74
2023/04/09 09:41:31;;;;;;;0.73;0.20;;;;;;;9.74;46.92;103044.88;5013301;28;20409;-75
2023/04/09 09:44:00;;;;;;;1.38;0.30;;;;;;;9.74;46.66;103034.41;5033916;28;20056;-74
2023/04/09 09:46:27;;;;;;;0.73;0.20;;;;;;;9.85;46.03;103033.78;5012238;28;20063;-74
2023/04/09 09:48:54;;;;;;;1.80;0.30;;;;;;;9.91;45.82;103043.47;5022740;28;20493;-74
2023/04/09 09:51:27;;;;;;;2.35;0.30;;;;;;;9.97;44.96;103035.78;5018819;28;20051;-74
2023/04/09 09:53:56;;;;;;;0.57;0.20;;;;;;;10.03;44.68;103038.50;5008394;28;20065;-73
2023/04/09 09:56:31;;;;;;;1.95;0.52;;;;;;;10.07;44.12;103036.81;5029283;28;20045;-74
2023/04/09 09:59:06;;;;;;;0.87;0.47;;;;;;;10.10;43.85;103032.56;5024407;28;20056;-73
2023/04/09 10:01:34;;;;;;;1.02;0.30;;;;;;;10.10;43.77;103026.44;5027881;28;20294;-74
2023/04/09 10:04:04;;;;;;;1.65;0.20;;;;;;;10.16;43.71;103037.03;5028069;28;20126;-74
2023/04/09 10:06:33;;;;;;;1.95;0.25;;;;;;;10.22;43.80;103038.88;5018463;28;20058;-74
2023/04/09 10:09:03;;;;;;;1.38;0.50;;;;;;;10.16;43.62;103021.34;5011065;28;20049;-74
2023/04/09 10:11:32;;;;;;;2.78;0.40;;;;;;;10.30;44.20;103025.16;5035176;28;20041;-73
2023/04/09 10:14:00;;;;;;;2.13;0.47;;;;;;;10.29;43.21;103032.94;5027614;28;20481;-74
2023/04/09 10:16:28;;;;;;;0.50;0.30;;;;;;;10.36;43.14;103029.59;5018594;28;20072;-74
2023/04/09 10:18:56;;;;;;;0.63;0.20;;;;;;;10.32;43.07;103017.31;5009818;28;20059;-74
2023/04/09 10:21:34;;;;;;;1.48;0.30;;;;;;;10.41;43.63;103027.94;5033310;28;20429;-74
2023/04/09 10:24:04;;;;;;;1.75;0.30;;;;;;;10.40;44.37;103023.56;5026562;28;20068;-74
2023/04/09 10:26:34;;;;;;;2.50;0.57;;;;;;;10.41;43.54;103021.81;5023701;28;20041;-74
2023/04/09 10:29:06;;;;;;;2.65;0.38;;;;;;;10.37;43.01;103010.44;5024275;28;20057;-75
2023/04/09 10:31:51;;;;;;;2.75;0.40;;;;;;;10.47;43.61;103016.72;5021795;28;20465;-74
2023/04/09 10:34:21;;;;;;;1.63;0.40;;;;;;;10.47;43.40;103017.63;5021909;28;20123;-75
2023/04/09 10:36:52;;;;;;;3.10;0.40;;;;;;;10.46;42.92;103015.84;5025204;28;20045;-75
2023/04/09 10:39:19;;;;;;;0.68;0.40;;;;;;;10.49;43.37;103020.25;5036573;28;20064;-75
2023/04/09 10:41:48;;;;;;;2.03;0.65;;;;;;;10.48;42.75;103019.38;5026338;28;20524;-76
2023/04/09 10:44:22;;;;;;;1.75;0.40;;;;;;;10.45;42.39;103016.69;5036158;28;20052;-76
2023/04/09 10:46:52;;;;;;;2.78;0.57;;;;;;;10.47;42.24;103012.38;5031032;28;20429;-75
2023/04/09 10:49:21;;;;;;;0.50;0.40;;;;;;;10.47;42.57;103009.78;5033286;28;20132;-75
2023/04/09 10:51:52;;;;;;;2.67;0.52;;;;;;;10.48;42.34;103015.88;5021865;28;20053;-76
2023/04/09 10:54:44;;;;;;;0.68;0.30;;;;;;;10.48;42.17;103011.53;5031457;28;20057;-75
2023/04/09 10:57:21;;;;;;;4.32;0.73;;;;;;;10.48;42.40;103014.13;5027433;28;20044;-76
2023/04/09 10:59:51;;;;;;;1.27;0.40;;;;;;;10.48;41.76;103013.25;5020789;28;20099;-75
2023/04/09 11:03:10;;;;;;;0.73;0.30;;;;;;;10.45;41.72;102998.41;5031260;28;20046;-76
2023/04/09 11:05:38;;;;;;;0.70;0.30;;;;;;;10.43;41.33;103004.44;5026390;28;20040;-75
2023/04/09 11:08:08;;;;;;;0.63;0.20;;;;;;;10.47;40.87;103006.25;5016381;28;20049;-76
2023/04/09 11:10:35;;;;;;;1.50;0.30;;;;;;;10.47;41.06;103007.16;5033874;28;20123;-75
2023/04/09 11:13:03;;;;;;;0.98;0.30;;;;;;;10.49;40.86;103005.44;5013225;28;20063;-76
2023/04/09 11:15:31;;;;;;;0.70;0.30;;;;;;;10.41;40.75;102991.34;5023268;28;20061;-76
2023/04/09 11:17:58;;;;;;;1.55;0.57;;;;;;;10.51;40.31;103003.75;5023849;28;20048;-77
2023/04/09 11:20:26;;;;;;;4.22;0.38;;;;;;;10.50;40.54;103007.22;5023652;28;20136;-75
2023/04/09 11:22:55;;;;;;;4.00;0.50;;;;;;;10.51;40.05;103005.47;5023558;28;20067;-76
2023/04/09 11:25:23;;;;;;;1.15;0.30;;;;;;;10.47;39.94;103001.03;5023674;28;20049;-75
2023/04/09 11:27:51;;;;;;;1.50;0.20;;;;;;;10.49;39.38;103000.22;5027981;28;20919;-75
2023/04/09 11:30:19;;;;;;;2.30;0.40;;;;;;;10.49;39.50;102999.34;5033142;28;20045;-75
2023/04/09 11:32:46;;;;;;;1.73;0.28;;;;;;;10.43;39.21;102994.00;5030021;28;20049;-75
2023/04/09 11:35:14;;;;;;;2.25;0.30;;;;;;;10.47;38.77;102996.72;5032457;28;20552;-75
2023/04/09 11:37:44;;;;;;;1.67;0.40;;;;;;;10.43;38.96;102987.03;5028154;28;20077;-75